Time;durP1;ratioP1;P1;durP2;ratioP2;P2;SDS_P1;SDS_P2;PMS_P1;PMS_P2;Temp;Humidity;BMP_temperature;BMP_pressure;BME280_temperature;BME280_humidity;BME280_pressure;Samples;Min_cycle;Max_cycle;Signal;HPM_P1;HPM_P2
2021/09/30 00:01:24;;;;;;;;;;;;;;;8.94;95.59;102231.84;5034347;28;19941;-50
2021/09/30 00:03:51;;;;;;;;;;;;;;;8.92;95.48;102230.19;5047473;28;19925;-45
2021/09/30 00:06:19;;;;;;;;;;;;;;;8.91;95.87;102231.94;5032470;28;19929;-46
2021/09/30 00:08:47;;;;;;;;;;;;;;;8.95;96.42;102236.16;5032149;28;19932;-45
2021/09/30 00:11:19;;;;;;;;;;;;;;;8.94;96.31;102239.72;5030819;28;19933;-47
2021/09/30 00:14:11;;;;;;;;;;;;;;;8.93;96.25;102243.25;5032297;28;19932;-46
2021/09/30 00:16:51;;;;;;;;;;;;;;;8.89;96.46;102246.91;5035145;28;19979;-45
2021/09/30 00:35:44;;;;;;;;;;;;;;;8.77;96.54;102249.97;5033294;28;20331;-48
2021/09/30 00:46:43;;;;;;;;;;;;;;;8.74;97.39;102250.91;5033997;28;19959;-45
2021/09/30 01:20:06;;;;;;;;;;;;;;;8.62;97.56;102262.69;5044234;28;19929;-44
2021/09/30 02:25:36;;;;;;;;;;;;;;;8.22;98.14;102297.19;5046078;28;19929;-55
2021/09/30 02:28:48;;;;;;;;;;;;;;;8.22;97.72;102298.06;5028166;28;19925;-57
2021/09/30 02:58:32;;;;;;;;;;;;;;;7.83;97.36;102313.28;5000976;28;19926;-56
2021/09/30 03:01:13;;;;;;;;;;;;;;;7.87;97.25;102317.50;4992154;28;19932;-55
2021/09/30 03:03:40;;;;;;;;;;;;;;;7.85;97.38;102311.44;4990616;28;19933;-56
2021/09/30 03:06:07;;;;;;;;;;;;;;;7.82;97.27;102311.53;4973369;28;19926;-54
2021/09/30 03:08:44;;;;;;;;;;;;;;;7.81;97.74;102313.28;4988885;28;19976;-45
2021/09/30 03:11:12;;;;;;;;;;;;;;;7.74;98.01;102312.63;5005566;28;19930;-45
2021/09/30 03:13:39;;;;;;;;;;;;;;;7.74;98.15;102317.00;4992294;28;19984;-47
2021/09/30 03:23:35;;;;;;;;;;;;;;;7.69;98.65;102325.00;5008485;28;19957;-45
2021/09/30 03:26:02;;;;;;;;;;;;;;;7.66;98.75;102329.47;5008451;28;19926;-46
2021/09/30 03:28:29;;;;;;;;;;;;;;;7.61;98.96;102327.84;4992103;28;19940;-44
2021/09/30 03:30:56;;;;;;;;;;;;;;;7.61;99.10;102325.22;5008528;28;19985;-47
2021/09/30 03:33:23;;;;;;;;;;;;;;;7.64;98.89;102326.06;4992898;28;19926;-45
2021/09/30 03:35:50;;;;;;;;;;;;;;;7.61;98.85;102330.47;4994287;28;20020;-43
2021/09/30 03:38:17;;;;;;;;;;;;;;;7.61;98.40;102322.59;4994796;28;19936;-44
2021/09/30 03:40:44;;;;;;;;;;;;;;;7.56;99.38;102329.72;5009117;28;19965;-44
2021/09/30 03:43:11;;;;;;;;;;;;;;;7.55;98.88;102332.41;4991798;28;19925;-47
2021/09/30 03:45:38;;;;;;;;;;;;;;;7.50;99.09;102329.91;5009248;28;20471;-46
2021/09/30 03:48:05;;;;;;;;;;;;;;;7.54;99.11;102331.53;5047409;28;20017;-56
2021/09/30 03:50:40;;;;;;;;;;;;;;;7.51;99.18;102323.78;5035919;28;19971;-55
2021/09/30 03:53:18;;;;;;;;;;;;;;;7.49;99.09;102328.19;5050312;28;20326;-56
2021/09/30 04:01:12;;;;;;;;;;;;;;;7.49;99.14;102333.44;5033265;28;19932;-48
2021/09/30 04:03:38;;;;;;;;;;;;;;;7.54;98.70;102335.91;5034263;28;19972;-48
2021/09/30 04:06:05;;;;;;;;;;;;;;;7.44;98.77;102346.66;5032129;28;19931;-47
2021/09/30 04:08:33;;;;;;;;;;;;;;;7.47;98.72;102347.47;5031811;28;20388;-44
2021/09/30 04:11:00;;;;;;;;;;;;;;;7.47;98.79;102348.31;5031270;28;19929;-44
2021/09/30 04:13:27;;;;;;;;;;;;;;;7.47;98.23;102350.94;5031800;28;19929;-44
2021/09/30 04:15:54;;;;;;;;;;;;;;;7.43;98.82;102354.53;5035043;28;20517;-46
2021/09/30 04:18:21;;;;;;;;;;;;;;;7.41;99.35;102351.13;5035006;28;19971;-44
2021/09/30 04:20:47;;;;;;;;;;;;;;;7.40;99.40;102352.88;5032312;28;19932;-43
2021/09/30 04:23:14;;;;;;;;;;;;;;;7.36;99.57;102358.22;5029946;28;20376;-44
2021/09/30 04:25:41;;;;;;;;;;;;;;;7.36;99.76;102355.59;5031559;28;19953;-46
2021/09/30 04:28:07;;;;;;;;;;;;;;;7.36;99.44;102366.06;5030220;28;19929;-43
2021/09/30 04:30:34;;;;;;;;;;;;;;;7.38;99.60;102367.75;5032240;28;20024;-46
2021/09/30 04:33:01;;;;;;;;;;;;;;;7.35;99.13;102367.84;5032585;28;19968;-45
2021/09/30 04:35:27;;;;;;;;;;;;;;;7.35;99.48;102366.97;5032295;28;20027;-49
2021/09/30 04:37:54;;;;;;;;;;;;;;;7.34;99.27;102365.28;5031915;28;19925;-45
2021/09/30 04:40:21;;;;;;;;;;;;;;;7.31;99.63;102370.56;5031857;28;20323;-43
2021/09/30 04:42:47;;;;;;;;;;;;;;;7.38;99.43;102374.75;5034598;28;19972;-44
2021/09/30 04:45:14;;;;;;;;;;;;;;;7.35;99.18;102373.09;5049745;28;19929;-42
2021/09/30 04:47:41;;;;;;;;;;;;;;;7.32;99.26;102375.78;5031710;28;19925;-42
2021/09/30 04:50:08;;;;;;;;;;;;;;;7.28;99.06;102371.53;5047494;28;19925;-44
2021/09/30 04:52:34;;;;;;;;;;;;;;;7.26;99.35;102374.19;5031099;28;20304;-45
2021/09/30 04:55:01;;;;;;;;;;;;;;;7.23;99.05;102376.88;5032269;28;19925;-43
2021/09/30 04:57:27;;;;;;;;;;;;;;;7.24;99.47;102376.00;5033037;28;20368;-44
2021/09/30 04:59:54;;;;;;;;;;;;;;;7.22;99.49;102382.16;5031201;28;20342;-45
2021/09/30 05:02:21;;;;;;;;;;;;;;;7.24;99.28;102373.38;5031056;28;19925;-45
2021/09/30 05:04:48;;;;;;;;;;;;;;;7.27;99.40;102380.28;5047268;28;20661;-46
2021/09/30 05:07:14;;;;;;;;;;;;;;;7.25;99.27;102382.94;5029781;28;19945;-45
2021/09/30 05:09:41;;;;;;;;;;;;;;;7.24;99.54;102380.34;5031697;28;19994;-45
2021/09/30 05:12:10;;;;;;;;;;;;;;;7.20;99.51;102386.56;5033485;28;19929;-47
2021/09/30 05:14:37;;;;;;;;;;;;;;;7.20;99.72;102394.41;5030008;28;20277;-47
2021/09/30 05:17:04;;;;;;;;;;;;;;;7.16;100.00;102384.91;5031704;28;19948;-47
2021/09/30 05:19:31;;;;;;;;;;;;;;;7.18;100.00;102396.22;5031465;28;20368;-47
2021/09/30 05:21:57;;;;;;;;;;;;;;;7.23;100.00;102389.13;5033588;28;20426;-48
2021/09/30 05:24:24;;;;;;;;;;;;;;;7.23;99.71;102400.44;5032844;28;19925;-56
2021/09/30 05:26:50;;;;;;;;;;;;;;;7.19;99.93;102401.41;5032031;28;19929;-56
2021/09/30 05:29:17;;;;;;;;;;;;;;;7.18;99.73;102397.06;5029252;28;19995;-56
2021/09/30 05:31:44;;;;;;;;;;;;;;;7.18;99.27;102396.22;5031259;28;19925;-57
2021/09/30 05:34:10;;;;;;;;;;;;;;;7.16;99.84;102408.47;5031304;28;19925;-57
2021/09/30 05:36:37;;;;;;;;;;;;;;;7.14;99.49;102398.06;5030933;28;19925;-58
2021/09/30 05:39:03;;;;;;;;;;;;;;;7.12;99.72;102399.88;5031442;28;19929;-55
2021/09/30 05:41:32;;;;;;;;;;;;;;;7.13;99.96;102400.72;5031147;28;19929;-56
2021/09/30 05:44:06;;;;;;;;;;;;;;;7.10;99.96;102394.69;5029965;28;19933;-56
2021/09/30 05:46:42;;;;;;;;;;;;;;;7.13;100.00;102400.72;5030274;28;19979;-56
2021/09/30 05:49:10;;;;;;;;;;;;;;;7.13;99.52;102398.97;5031139;28;20449;-55
2021/09/30 05:51:37;;;;;;;;;;;;;;;7.17;99.19;102399.72;5031301;28;19929;-56
2021/09/30 05:54:04;;;;;;;;;;;;;;;7.21;99.38;102390.91;5047647;28;20434;-56
2021/09/30 05:56:30;;;;;;;;;;;;;;;7.18;98.60;102397.06;5028833;28;19929;-56
2021/09/30 05:58:57;;;;;;;;;;;;;;;7.21;98.65;102394.41;5029585;28;19925;-56
2021/09/30 06:14:47;;;;;;;;;;;;;;;7.14;99.49;102400.66;5030906;28;19975;-56
2021/09/30 06:17:14;;;;;;;;;;;;;;;7.10;99.47;102397.28;5030239;28;20372;-57
2021/09/30 06:19:40;;;;;;;;;;;;;;;7.13;99.92;102404.22;5030812;28;19929;-55
2021/09/30 06:22:07;;;;;;;;;;;;;;;7.18;100.00;102406.69;5045338;28;19936;-58
2021/09/30 06:24:34;;;;;;;;;;;;;;;7.21;99.85;102414.44;5030193;28;20073;-57
2021/09/30 06:27:01;;;;;;;;;;;;;;;7.24;100.00;102414.38;5028755;28;20391;-57
2021/09/30 06:29:28;;;;;;;;;;;;;;;7.26;100.00;102405.56;5028560;28;19925;-57
2021/09/30 06:31:55;;;;;;;;;;;;;;;7.26;100.00;102408.19;5029940;28;20291;-57
2021/09/30 06:34:21;;;;;;;;;;;;;;;7.31;100.00;102402.84;5045405;28;20346;-57
2021/09/30 06:36:49;;;;;;;;;;;;;;;7.37;100.00;102412.31;5029973;28;19932;-57
2021/09/30 06:39:16;;;;;;;;;;;;;;;7.41;100.00;102408.69;5029699;28;19983;-57
2021/09/30 06:41:42;;;;;;;;;;;;;;;7.47;100.00;102413.75;5028794;28;19979;-57
2021/09/30 06:44:17;;;;;;;;;;;;;;;7.51;100.00;102415.41;5029186;28;19948;-56
2021/09/30 06:46:44;;;;;;;;;;;;;;;7.64;99.80;102420.31;5046561;28;19924;-56
2021/09/30 06:49:11;;;;;;;;;;;;;;;7.66;99.87;102432.44;5047987;28;20015;-56
2021/09/30 06:51:37;;;;;;;;;;;;;;;7.73;99.83;102426.16;5032591;28;19975;-56
2021/09/30 06:54:05;;;;;;;;;;;;;;;7.78;100.00;102433.88;5045314;28;19929;-56
2021/09/30 06:56:32;;;;;;;;;;;;;;;7.86;99.72;102444.13;5028539;28;20348;-56
2021/09/30 06:59:05;;;;;;;;;;;;;;;7.89;100.00;102434.41;5029929;28;19929;-55
2021/09/30 07:01:33;;;;;;;;;;;;;;;7.98;99.40;102440.31;5030913;28;19929;-57
2021/09/30 07:04:00;;;;;;;;;;;;;;;8.11;98.62;102436.41;5045142;28;19935;-54
2021/09/30 07:06:27;;;;;;;;;;;;;;;8.18;98.04;102431.84;5045126;28;19926;-56
2021/09/30 07:08:53;;;;;;;;;;;;;;;8.26;98.48;102438.59;5029113;28;20426;-56
2021/09/30 07:11:20;;;;;;;;;;;;;;;8.38;97.50;102444.38;5029955;28;20364;-56
2021/09/30 07:13:47;;;;;;;;;;;;;;;8.50;96.77;102445.81;5029210;28;19933;-56
2021/09/30 07:16:13;;;;;;;;;;;;;;;8.74;96.53;102445.03;5028086;28;19929;-56
2021/09/30 07:18:40;;;;;;;;;;;;;;;8.95;95.91;102440.00;5029559;28;20465;-56
2021/09/30 07:21:07;;;;;;;;;;;;;;;9.21;96.08;102443.50;5046770;28;19935;-56
2021/09/30 07:23:34;;;;;;;;;;;;;;;9.34;93.37;102442.19;5029390;28;19971;-55
2021/09/30 07:26:01;;;;;;;;;;;;;;;9.60;93.59;102435.16;5030801;28;20346;-56
2021/09/30 07:28:28;;;;;;;;;;;;;;;9.72;93.11;102439.09;5029711;28;19975;-56
2021/09/30 07:30:55;;;;;;;;;;;;;;;9.98;91.55;102439.00;5044700;28;20355;-57
2021/09/30 07:33:21;;;;;;;;;;;;;;;10.17;91.14;102440.97;5029622;28;19975;-57
2021/09/30 07:35:48;;;;;;;;;;;;;;;10.31;91.19;102441.28;5032028;28;19925;-56
2021/09/30 07:38:14;;;;;;;;;;;;;;;10.49;89.42;102439.72;5029110;28;19929;-57
2021/09/30 07:40:41;;;;;;;;;;;;;;;10.59;89.31;102439.38;5029715;28;19936;-55
2021/09/30 07:43:08;;;;;;;;;;;;;;;10.70;87.23;102437.16;5027488;28;19925;-56
2021/09/30 07:45:35;;;;;;;;;;;;;;;10.90;86.60;102443.41;5031347;28;19932;-56
2021/09/30 07:48:02;;;;;;;;;;;;;;;11.21;85.12;102435.06;5028428;28;19925;-55
2021/09/30 07:50:29;;;;;;;;;;;;;;;11.51;83.40;102437.31;5029309;28;19932;-56
2021/09/30 07:52:57;;;;;;;;;;;;;;;11.67;83.25;102438.34;5029189;28;19950;-58
2021/09/30 07:55:24;;;;;;;;;;;;;;;11.83;80.93;102441.16;5029074;28;20411;-56
2021/09/30 07:57:51;;;;;;;;;;;;;;;11.61;81.38;102445.66;5046617;28;19975;-56
2021/09/30 08:00:18;;;;;;;;;;;;;;;11.83;81.31;102449.06;5050771;28;20402;-57
2021/09/30 08:02:44;;;;;;;;;;;;;;;12.24;80.90;102445.47;5048227;28;19983;-55
2021/09/30 08:05:11;;;;;;;;;;;;;;;12.30;79.15;102449.63;5048196;28;20446;-57
2021/09/30 08:07:38;;;;;;;;;;;;;;;12.36;79.69;102448.47;5033698;28;19932;-57
2021/09/30 08:10:05;;;;;;;;;;;;;;;12.54;76.04;102452.84;5035333;28;19948;-56
2021/09/30 08:12:32;;;;;;;;;;;;;;;12.76;78.15;102452.69;5030059;28;19929;-57
2021/09/30 08:14:58;;;;;;;;;;;;;;;13.10;77.60;102451.03;5031630;28;19975;-56
2021/09/30 08:17:25;;;;;;;;;;;;;;;13.06;75.66;102456.50;5031006;28;19936;-55
2021/09/30 08:19:51;;;;;;;;;;;;;;;13.04;74.00;102459.22;5048198;28;19925;-55
2021/09/30 08:22:18;;;;;;;;;;;;;;;13.24;74.47;102458.25;5033582;28;20414;-54
2021/09/30 08:24:44;;;;;;;;;;;;;;;13.05;72.38;102460.94;5033663;28;19995;-53
2021/09/30 08:27:11;;;;;;;;;;;;;;;13.26;74.65;102452.88;5030521;28;19936;-56
2021/09/30 08:29:38;;;;;;;;;;;;;;;13.25;72.98;102454.66;5038127;28;19929;-56
2021/09/30 08:32:05;;;;;;;;;;;;;;;13.56;73.42;102449.63;5035763;28;19987;-55
2021/09/30 08:34:32;;;;;;;;;;;;;;;13.42;71.30;102455.63;5036717;28;19926;-55
2021/09/30 08:36:59;;;;;;;;;;;;;;;13.80;73.20;102453.59;5048688;28;19975;-55
2021/09/30 08:39:26;;;;;;;;;;;;;;;14.05;72.47;102456.72;5050573;28;19929;-56
2021/09/30 08:41:53;;;;;;;;;;;;;;;14.12;71.37;102456.28;5051021;28;19925;-56
2021/09/30 08:44:20;;;;;;;;;;;;;;;14.14;70.00;102459.72;5037140;28;19952;-53
2021/09/30 08:46:47;;;;;;;;;;;;;;;14.25;69.52;102461.78;5043181;28;19937;-55
2021/09/30 08:49:14;;;;;;;;;;;;;;;14.38;70.09;102459.28;5043811;28;19925;-54
2021/09/30 08:51:40;;;;;;;;;;;;;;;14.23;70.20;102458.34;5034507;28;20028;-56
2021/09/30 08:54:08;;;;;;;;;;;;;;;14.28;70.11;102458.94;5032942;28;19952;-53
2021/09/30 08:56:35;;;;;;;;;;;;;;;14.42;70.52;102463.47;5031979;28;19924;-57
2021/09/30 08:59:15;;;;;;;;;;;;;;;14.25;67.65;102458.25;5031003;28;19935;-55
2021/09/30 09:01:46;;;;;;;;;;;;;;;14.57;70.11;102461.75;5028594;28;19929;-56
2021/09/30 09:04:17;;;;;;;;;;;;;;;14.53;68.21;102454.94;5029159;28;19929;-55
2021/09/30 09:06:43;;;;;;;;;;;;;;;14.53;67.44;102455.81;5030670;28;19933;-56
2021/09/30 09:09:30;;;;;;;;;;;;;;;14.78;68.93;102465.03;5045988;28;20461;-47
2021/09/30 09:12:02;;;;;;;;;;;;;;;14.89;68.01;102459.09;5028365;28;19929;-45
2021/09/30 09:14:29;;;;;;;;;;;;;;;15.11;67.25;102463.16;5030248;28;20329;-45
2021/09/30 09:16:57;;;;;;;;;;;;;;;15.13;65.96;102456.78;5046243;28;19925;-45
2021/09/30 09:19:31;;;;;;;;;;;;;;;15.35;65.79;102461.69;5033035;28;19925;-47
2021/09/30 09:22:05;;;;;;;;;;;;;;;15.52;64.34;102462.47;5030300;28;19936;-55
2021/09/30 09:24:31;;;;;;;;;;;;;;;15.50;65.60;102465.22;5030090;28;19955;-54
2021/09/30 09:27:01;;;;;;;;;;;;;;;15.68;63.42;102459.75;5028356;28;19929;-54
2021/09/30 09:29:31;;;;;;;;;;;;;;;15.91;64.72;102461.00;5029759;28;20357;-53
2021/09/30 09:32:02;;;;;;;;;;;;;;;16.04;62.46;102458.44;5045440;28;19933;-53
2021/09/30 09:34:35;;;;;;;;;;;;;;;16.08;61.90;102469.72;5030555;28;20388;-54
2021/09/30 09:37:23;;;;;;;;;;;;;;;16.21;62.94;102457.34;5033950;28;19925;-55
2021/09/30 09:39:54;;;;;;;;;;;;;;;16.18;63.44;102455.78;5033834;28;19991;-55
2021/09/30 09:42:25;;;;;;;;;;;;;;;16.30;62.06;102455.94;5049391;28;19983;-54
2021/09/30 09:44:59;;;;;;;;;;;;;;;16.37;61.55;102458.09;5033594;28;19987;-52
2021/09/30 09:47:32;;;;;;;;;;;;;;;16.24;61.48;102451.88;5032869;28;19932;-54
2021/09/30 09:50:18;;;;;;;;;;;;;;;16.28;61.36;102455.16;5033222;28;19925;-53
2021/09/30 09:52:45;;;;;;;;;;;;;;;16.37;61.33;102457.22;5030883;28;20427;-50
2021/09/30 09:55:25;;;;;;;;;;;;;;;16.40;60.84;102451.72;5029971;28;20408;-53
2021/09/30 09:58:07;;;;;;;;;;;;;;;16.11;61.00;102456.25;5029371;28;20459;-52
2021/09/30 10:00:35;;;;;;;;;;;;;;;16.22;61.46;102453.75;5033405;28;19925;-52
2021/09/30 10:03:19;;;;;;;;;;;;;;;16.36;60.94;102444.91;5045976;28;20377;-51
2021/09/30 10:05:46;;;;;;;;;;;;;;;16.41;61.05;102444.63;5030484;28;20044;-54
2021/09/30 10:08:14;;;;;;;;;;;;;;;16.50;59.79;102449.34;5033277;28;20403;-53
2021/09/30 10:10:42;;;;;;;;;;;;;;;16.59;61.43;102442.56;5033252;28;19925;-52
2021/09/30 10:13:09;;;;;;;;;;;;;;;16.51;60.06;102437.75;5045828;28;19960;-50
2021/09/30 10:15:36;;;;;;;;;;;;;;;16.55;60.21;102444.56;5028185;28;19929;-53
2021/09/30 10:18:03;;;;;;;;;;;;;;;16.84;59.87;102431.19;5029714;28;19995;-54
2021/09/30 10:20:30;;;;;;;;;;;;;;;16.62;58.52;102434.38;5029066;28;20351;-53
2021/09/30 10:22:57;;;;;;;;;;;;;;;16.92;57.18;102426.25;5031405;28;19925;-44
2021/09/30 10:25:31;;;;;;;;;;;;;;;16.93;57.37;102417.28;5045675;28;19932;-45
2021/09/30 10:27:58;;;;;;;;;;;;;;;17.05;58.11;102427.09;5027005;28;20372;-48
2021/09/30 10:30:38;;;;;;;;;;;;;;;17.23;55.82;102424.13;5032113;28;20376;-49
2021/09/30 10:33:06;;;;;;;;;;;;;;;17.23;56.47;102425.00;5030625;28;19933;-48
2021/09/30 10:35:33;;;;;;;;;;;;;;;17.05;56.89;102424.44;5044303;28;19964;-45
2021/09/30 10:38:20;;;;;;;;;;;;;;;17.13;56.70;102415.09;5028927;28;19933;-49
2021/09/30 10:41:01;;;;;;;;;;;;;;;17.46;57.01;102419.03;5028744;28;19929;-47
2021/09/30 10:43:29;;;;;;;;;;;;;;;18.12;55.47;102413.53;5027713;28;20439;-47
2021/09/30 10:45:56;;;;;;;;;;;;;;;18.48;55.28;102417.13;5044823;28;19925;-44
2021/09/30 10:48:23;;;;;;;;;;;;;;;18.81;52.92;102416.41;5027633;28;19935;-46
2021/09/30 10:50:51;;;;;;;;;;;;;;;18.92;50.79;102415.63;5029606;28;19925;-47
2021/09/30 10:53:17;;;;;;;;;;;;;;;18.31;50.05;102416.56;5027407;28;19925;-46
2021/09/30 10:55:44;;;;;;;;;;;;;;;18.37;52.50;102418.75;5045620;28;19925;-47
2021/09/30 10:58:22;;;;;;;;;;;;;;;18.16;52.07;102413.22;5047802;28;20347;-46
2021/09/30 11:00:50;;;;;;;;;;;;;;;18.19;51.46;102412.13;5046320;28;19925;-47
2021/09/30 11:03:23;;;;;;;;;;;;;;;17.81;52.31;102418.38;5029956;28;19929;-47
2021/09/30 11:06:08;;;;;;;;;;;;;;;17.78;52.06;102411.47;5030187;28;19925;-49
2021/09/30 11:08:35;;;;;;;;;;;;;;;17.78;50.71;102410.59;5029320;28;19991;-47
2021/09/30 11:11:12;;;;;;;;;;;;;;;17.64;53.03;102409.78;5044185;28;19925;-47
2021/09/30 11:13:40;;;;;;;;;;;;;;;18.00;53.72;102417.94;5030907;28;20300;-48
2021/09/30 11:16:16;;;;;;;;;;;;;;;18.20;51.97;102413.81;5045923;28;19979;-49
2021/09/30 11:18:43;;;;;;;;;;;;;;;18.20;52.37;102424.47;5029950;28;20436;-49
2021/09/30 11:21:31;;;;;;;;;;;;;;;18.13;50.65;102424.06;5031574;28;19925;-49
2021/09/30 11:24:03;;;;;;;;;;;;;;;18.25;49.54;102419.66;5029765;28;20368;-49
2021/09/30 11:26:34;;;;;;;;;;;;;;;17.72;48.93;102418.06;5028452;28;19940;-46
2021/09/30 11:29:24;;;;;;;;;;;;;;;17.72;49.08;102418.06;5028485;28;20012;-46
2021/09/30 11:31:53;;;;;;;;;;;;;;;18.00;49.47;102413.47;5032050;28;20304;-46
2021/09/30 11:34:20;;;;;;;;;;;;;;;17.80;50.72;102416.69;5033856;28;20460;-48
2021/09/30 11:36:47;;;;;;;;;;;;;;;17.99;50.41;102409.09;5033340;28;19993;-50
2021/09/30 11:39:14;;;;;;;;;;;;;;;17.68;49.97;102413.94;5048288;28;19925;-50
2021/09/30 11:41:41;;;;;;;;;;;;;;;17.68;49.74;102408.63;5032704;28;19932;-47
2021/09/30 11:44:12;;;;;;;;;;;;;;;17.71;50.20;102408.38;5035796;28;19932;-46
2021/09/30 11:46:39;;;;;;;;;;;;;;;17.68;50.26;102399.75;5035298;28;19925;-46
2021/09/30 11:49:09;;;;;;;;;;;;;;;17.73;49.62;102394.97;5035499;28;19925;-44
2021/09/30 11:51:38;;;;;;;;;;;;;;;17.85;49.40;102406.56;5035238;28;19929;-45
2021/09/30 11:54:05;;;;;;;;;;;;;;;17.81;49.91;102402.41;5033180;28;19929;-45
2021/09/30 11:57:01;;;;;;;;;;;;;;;17.69;50.01;102404.97;5046588;28;19933;-45
2021/09/30 11:59:31;;;;;;;;;;;;;;;17.81;49.50;102392.59;5026801;28;19940;-47
2021/09/30 12:02:06;;;;;;;;;;;;;;;17.63;49.94;102397.44;5032299;28;19929;-46
2021/09/30 12:04:43;;;;;;;;;;;;;;;17.85;50.06;102390.59;5049368;28;19929;-49
2021/09/30 12:07:23;;;;;;;;;;;;;;;18.27;48.80;102388.47;5046968;28;19952;-47
2021/09/30 12:09:54;;;;;;;;;;;;;;;18.34;49.41;102395.03;5048022;28;19975;-48
2021/09/30 12:12:30;;;;;;;;;;;;;;;18.41;47.79;102382.94;5030218;28;20027;-49
2021/09/30 12:14:57;;;;;;;;;;;;;;;18.69;47.65;102378.22;5032912;28;19925;-45
2021/09/30 12:17:29;;;;;;;;;;;;;;;18.82;47.36;102371.97;5031772;28;19926;-46
2021/09/30 12:19:55;;;;;;;;;;;;;;;18.41;47.84;102374.97;5033808;28;19932;-46
2021/09/30 12:22:26;;;;;;;;;;;;;;;18.29;47.26;102373.22;5035319;28;19929;-49
2021/09/30 12:24:57;;;;;;;;;;;;;;;18.33;46.49;102377.34;5050520;28;19956;-47
2021/09/30 12:27:25;;;;;;;;;;;;;;;18.18;46.94;102378.47;5035176;28;19925;-49
2021/09/30 12:29:53;;;;;;;;;;;;;;;18.18;47.54;102378.47;5035430;28;19956;-48
2021/09/30 12:32:23;;;;;;;;;;;;;;;18.21;47.41;102371.09;5050378;28;20377;-47
2021/09/30 12:35:09;;;;;;;;;;;;;;;18.41;47.68;102368.78;5035075;28;19975;-50
2021/09/30 12:37:40;;;;;;;;;;;;;;;18.39;47.69;102368.03;5034907;28;20284;-46
2021/09/30 12:40:13;;;;;;;;;;;;;;;18.08;46.73;102360.50;5049815;28;19929;-47
2021/09/30 12:42:40;;;;;;;;;;;;;;;18.00;47.43;102362.06;5033946;28;19947;-44
2021/09/30 12:45:07;;;;;;;;;;;;;;;17.92;47.67;102365.25;5048254;28;20408;-48
2021/09/30 12:47:42;;;;;;;;;;;;;;;17.91;47.10;102358.19;5031889;28;19947;-48
2021/09/30 12:50:13;;;;;;;;;;;;;;;18.01;47.00;102364.59;5032210;28;19952;-47
2021/09/30 12:52:40;;;;;;;;;;;;;;;17.99;47.80;102358.53;5034532;28;19925;-44
2021/09/30 12:55:15;;;;;;;;;;;;;;;17.92;48.36;102348.47;5049987;28;20372;-47
2021/09/30 12:57:42;;;;;;;;;;;;;;;17.94;49.13;102349.19;5032557;28;19933;-46
2021/09/30 13:00:13;;;;;;;;;;;;;;;17.99;48.64;102347.88;5031514;28;20279;-47
2021/09/30 13:02:40;;;;;;;;;;;;;;;18.15;48.96;102336.13;5031517;28;19925;-47
2021/09/30 13:05:07;;;;;;;;;;;;;;;18.02;49.55;102337.00;5047061;28;19925;-49
2021/09/30 13:07:51;;;;;;;;;;;;;;;18.04;49.41;102326.25;5031092;28;19975;-47
2021/09/30 13:10:19;;;;;;;;;;;;;;;17.85;49.43;102324.06;5032872;28;19929;-48
2021/09/30 13:13:02;;;;;;;;;;;;;;;17.70;50.13;102324.19;5034043;28;19975;-48
2021/09/30 13:15:36;;;;;;;;;;;;;;;17.79;50.12;102327.16;5032906;28;20717;-49
2021/09/30 13:18:03;;;;;;;;;;;;;;;17.70;49.80;102324.19;5032709;28;19955;-45
2021/09/30 13:20:30;;;;;;;;;;;;;;;17.44;50.74;102330.53;5034038;28;19952;-47
2021/09/30 13:22:57;;;;;;;;;;;;;;;17.41;50.63;102328.97;5047471;28;20000;-46
2021/09/30 13:25:24;;;;;;;;;;;;;;;17.36;52.49;102323.94;5047070;28;19929;-45
2021/09/30 13:27:51;;;;;;;;;;;;;;;17.30;51.74;102329.72;5033656;28;19925;-46
2021/09/30 13:30:18;;;;;;;;;;;;;;;17.18;51.44;102320.78;5033978;28;19925;-44
2021/09/30 13:32:45;;;;;;;;;;;;;;;17.25;52.62;102326.53;5032348;28;19929;-44
2021/09/30 13:35:12;;;;;;;;;;;;;;;17.18;52.50;102317.28;5031963;28;19961;-45
2021/09/30 13:37:39;;;;;;;;;;;;;;;17.09;52.71;102310.78;5045535;28;19932;-46
2021/09/30 13:40:06;;;;;;;;;;;;;;;16.98;53.22;102310.69;5030554;28;19979;-45
2021/09/30 13:42:34;;;;;;;;;;;;;;;17.04;52.61;102302.28;5028031;28;20425;-45
2021/09/30 13:45:01;;;;;;;;;;;;;;;16.85;52.77;102302.69;5029829;28;19935;-48
2021/09/30 13:47:28;;;;;;;;;;;;;;;16.79;54.18;102303.94;5030203;28;19932;-47
2021/09/30 13:49:56;;;;;;;;;;;;;;;16.81;54.09;102291.44;5032113;28;19928;-45
2021/09/30 13:52:23;;;;;;;;;;;;;;;16.64;54.17;102295.22;5033114;28;19929;-50
2021/09/30 13:54:49;;;;;;;;;;;;;;;16.61;53.79;102290.13;5033161;28;20012;-49
2021/09/30 13:57:16;;;;;;;;;;;;;;;16.63;53.91;102288.22;5031919;28;19933;-44
2021/09/30 13:59:43;;;;;;;;;;;;;;;16.42;54.77;102285.22;5032864;28;20376;-49
2021/09/30 14:02:29;;;;;;;;;;;;;;;16.53;54.04;102276.53;5031684;28;20035;-44
2021/09/30 14:04:56;;;;;;;;;;;;;;;16.33;55.18;102275.22;5046492;28;19925;-48
2021/09/30 14:07:23;;;;;;;;;;;;;;;16.41;54.38;102272.06;5029792;28;19929;-51
2021/09/30 14:09:49;;;;;;;;;;;;;;;16.41;54.97;102280.84;5030580;28;19933;-54
2021/09/30 14:12:16;;;;;;;;;;;;;;;16.37;54.96;102282.00;5031410;28;19925;-52
2021/09/30 14:14:43;;;;;;;;;;;;;;;16.38;55.72;102281.91;5030350;28;19933;-55
2021/09/30 14:17:09;;;;;;;;;;;;;;;16.14;56.13;102280.88;5058807;28;19974;-51
2021/09/30 14:19:36;;;;;;;;;;;;;;;16.26;56.66;102280.06;5047111;28;19971;-52
2021/09/30 14:22:03;;;;;;;;;;;;;;;16.39;55.76;102280.97;5029131;28;20464;-54
2021/09/30 14:24:31;;;;;;;;;;;;;;;16.13;57.11;102269.44;5043115;28;19986;-53
2021/09/30 14:26:58;;;;;;;;;;;;;;;16.27;56.65;102263.19;5048444;28;19931;-52
2021/09/30 14:29:25;;;;;;;;;;;;;;;16.12;57.34;102258.94;5048919;28;19936;-52
2021/09/30 14:31:52;;;;;;;;;;;;;;;15.91;57.11;102255.88;5049536;28;19925;-52
2021/09/30 14:34:18;;;;;;;;;;;;;;;15.88;58.32;102254.25;5048962;28;20362;-51
2021/09/30 14:36:45;;;;;;;;;;;;;;;15.92;57.30;102245.16;5049175;28;19987;-52
2021/09/30 14:39:11;;;;;;;;;;;;;;;15.97;56.85;102243.06;5049980;28;20334;-51
2021/09/30 14:41:38;;;;;;;;;;;;;;;16.01;57.49;102239.25;5047048;28;19925;-43
2021/09/30 14:44:05;;;;;;;;;;;;;;;15.83;58.22;102238.66;5048287;28;19925;-44
2021/09/30 14:46:32;;;;;;;;;;;;;;;15.89;58.73;102242.72;5051936;28;20311;-44
2021/09/30 14:48:58;;;;;;;;;;;;;;;15.84;58.76;102244.81;5052491;28;19925;-45
2021/09/30 14:51:27;;;;;;;;;;;;;;;15.74;59.04;102249.00;5051248;28;20470;-51
2021/09/30 14:53:53;;;;;;;;;;;;;;;15.71;59.21;102242.94;5049669;28;19928;-52
2021/09/30 14:56:20;;;;;;;;;;;;;;;15.58;59.55;102246.47;5051005;28;20000;-52
2021/09/30 14:58:47;;;;;;;;;;;;;;;15.45;59.32;102238.47;5052009;28;19925;-51
2021/09/30 15:01:14;;;;;;;;;;;;;;;15.48;58.94;102235.63;5052278;28;19975;-51
2021/09/30 15:03:41;;;;;;;;;;;;;;;15.49;58.77;102232.03;5049654;28;19929;-50
2021/09/30 15:06:12;;;;;;;;;;;;;;;15.62;58.68;102238.22;5050154;28;20426;-52
2021/09/30 15:08:38;;;;;;;;;;;;;;;15.37;59.74;102223.03;5052912;28;19929;-53
2021/09/30 15:11:06;;;;;;;;;;;;;;;15.29;60.21;102222.69;5051289;28;20707;-54
2021/09/30 15:13:33;;;;;;;;;;;;;;;15.34;60.57;102213.47;5052198;28;20185;-53
2021/09/30 15:16:02;;;;;;;;;;;;;;;15.23;60.87;102210.69;5053254;28;19955;-52
2021/09/30 15:18:50;;;;;;;;;;;;;;;15.16;61.96;102210.22;5053682;28;19932;-47
2021/09/30 15:21:21;;;;;;;;;;;;;;;15.01;61.81;102212.03;5053181;28;19928;-45
2021/09/30 15:23:48;;;;;;;;;;;;;;;15.13;61.81;102209.53;5051874;28;19929;-44
2021/09/30 15:26:18;;;;;;;;;;;;;;;15.11;61.40;102208.81;5067338;28;19929;-46
2021/09/30 15:28:45;;;;;;;;;;;;;;;15.14;61.37;102206.78;5055626;28;19960;-46
2021/09/30 15:31:12;;;;;;;;;;;;;;;15.14;61.04;102201.50;5052831;28;19994;-46
2021/09/30 15:33:39;;;;;;;;;;;;;;;15.11;62.19;102207.00;5050849;28;20545;-47
2021/09/30 15:36:09;;;;;;;;;;;;;;;15.27;61.97;102203.34;5033245;28;19932;-49
2021/09/30 15:38:36;;;;;;;;;;;;;;;15.08;62.64;102191.28;5066173;28;20336;-53
2021/09/30 15:41:04;;;;;;;;;;;;;;;15.13;62.28;102194.47;5034743;28;19929;-50
2021/09/30 15:43:44;;;;;;;;;;;;;;;15.20;63.14;102200.25;5063557;28;19984;-56